Time;durP1;ratioP1;P1;durP2;ratioP2;P2;SDS_P1;SDS_P2;PMS_P1;PMS_P2;Temp;Humidity;BMP_temperature;BMP_pressure;BME280_temperature;BME280_humidity;BME280_pressure;Samples;Min_cycle;Max_cycle;Signal;HPM_P1;HPM_P2
2021/04/26 00:01:15;;;;;;;3.47;1.90;;;3.00;60.10;;;;;;5056257;28;20174;-85
2021/04/26 00:03:40;;;;;;;6.30;2.77;;;2.80;60.70;;;;;;5054827;28;20183;-85
2021/04/26 00:06:06;;;;;;;3.33;2.13;;;2.80;60.60;;;;;;5054836;28;20177;-86
2021/04/26 00:08:32;;;;;;;4.93;1.97;;;2.70;61.20;;;;;;5056188;28;20179;-86
2021/04/26 00:10:58;;;;;;;7.67;2.63;;;2.70;61.60;;;;;;5055887;28;20205;-86
2021/04/26 00:13:24;;;;;;;6.53;2.30;;;2.70;61.70;;;;;;5054769;28;20214;-86
2021/04/26 00:15:49;;;;;;;5.03;2.47;;;2.60;62.00;;;;;;5054732;28;20276;-86
2021/04/26 00:18:15;;;;;;;6.27;2.60;;;2.60;62.10;;;;;;5054622;28;20180;-86
2021/04/26 00:20:42;;;;;;;6.47;2.93;;;2.60;62.70;;;;;;5055711;28;20300;-86
2021/04/26 00:23:09;;;;;;;11.80;3.20;;;2.60;62.80;;;;;;5055747;28;20192;-86
2021/04/26 00:25:35;;;;;;;10.17;2.90;;;2.60;62.80;;;;;;5054728;28;20179;-86
2021/04/26 00:28:02;;;;;;;9.30;2.13;;;2.50;63.10;;;;;;5054454;28;20180;-86
2021/04/26 00:30:29;;;;;;;6.63;2.90;;;2.60;62.90;;;;;;5055572;28;20184;-86
2021/04/26 00:32:55;;;;;;;8.33;2.53;;;2.50;62.80;;;;;;5054761;28;20227;-87
2021/04/26 00:35:21;;;;;;;5.40;2.27;;;2.40;63.90;;;;;;5055459;28;20178;-87
2021/04/26 00:37:48;;;;;;;6.30;2.40;;;2.40;64.50;;;;;;5055729;28;20687;-87
2021/04/26 00:40:16;;;;;;;7.70;2.23;;;2.30;64.90;;;;;;5055347;28;20284;-87
2021/04/26 00:42:42;;;;;;;10.43;2.47;;;2.30;65.00;;;;;;5053803;28;20617;-86
2021/04/26 00:45:14;;;;;;;9.00;2.33;;;2.30;65.40;;;;;;5055495;28;20712;-87
2021/04/26 00:47:41;;;;;;;6.20;2.07;;;2.30;65.30;;;;;;5054188;28;20222;-87
2021/04/26 00:50:40;;;;;;;5.17;2.33;;;2.20;65.30;;;;;;5054087;28;20185;-87
2021/04/26 00:53:05;;;;;;;8.60;2.40;;;2.20;65.60;;;;;;5052728;28;20210;-86
2021/04/26 00:55:34;;;;;;;5.77;2.47;;;2.30;65.80;;;;;;5055403;28;20183;-83
2021/04/26 00:58:02;;;;;;;7.83;2.77;;;2.30;66.20;;;;;;5055697;28;20176;-83
2021/04/26 01:00:29;;;;;;;15.63;2.53;;;2.20;66.70;;;;;;5053502;28;20301;-82
2021/04/26 01:02:55;;;;;;;9.40;2.13;;;2.20;66.90;;;;;;5053591;28;20194;-83
2021/04/26 01:05:23;;;;;;;18.63;3.20;;;2.10;67.40;;;;;;5054883;28;20265;-86
2021/04/26 01:07:50;;;;;;;11.17;2.17;;;2.10;68.40;;;;;;5054979;28;20680;-85
2021/04/26 01:10:21;;;;;;;13.23;2.53;;;2.10;69.90;;;;;;5053546;28;20217;-86
2021/04/26 01:13:31;;;;;;;12.30;2.70;;;2.00;69.90;;;;;;5053243;28;20226;-86
2021/04/26 01:16:22;;;;;;;12.30;3.00;;;2.00;69.50;;;;;;5022235;28;20277;-86
2021/04/26 01:19:02;;;;;;;9.53;2.20;;;1.90;70.70;;;;;;5054527;28;20235;-87
2021/04/26 01:22:21;;;;;;;5.33;2.50;;;1.90;71.00;;;;;;5054636;28;20278;-86
2021/04/26 01:25:14;;;;;;;7.77;2.47;;;1.80;71.10;;;;;;5044913;28;20731;-86
2021/04/26 01:27:46;;;;;;;11.87;2.67;;;1.80;71.00;;;;;;5053421;28;20248;-86
2021/04/26 01:30:23;;;;;;;8.00;2.50;;;1.90;70.40;;;;;;5053264;28;20186;-86
2021/04/26 01:33:05;;;;;;;7.67;2.30;;;1.80;70.20;;;;;;5053114;28;20201;-86
2021/04/26 01:35:32;;;;;;;8.73;2.60;;;1.70;70.60;;;;;;5053198;28;20166;-87
2021/04/26 01:38:04;;;;;;;10.77;2.30;;;1.70;71.90;;;;;;5054570;28;20606;-86
2021/04/26 01:40:30;;;;;;;15.03;4.40;;;1.60;71.90;;;;;;5053034;28;20212;-86
2021/04/26 01:42:58;;;;;;;10.07;2.90;;;1.70;71.60;;;;;;5052911;28;20200;-86
2021/04/26 01:45:25;;;;;;;11.63;2.87;;;1.70;71.30;;;;;;5054136;28;20592;-86
2021/04/26 01:47:55;;;;;;;14.83;2.47;;;1.60;71.00;;;;;;5052802;28;20660;-86
2021/04/26 01:50:23;;;;;;;9.43;2.77;;;1.60;71.90;;;;;;5052848;28;20544;-85
2021/04/26 01:52:49;;;;;;;6.97;2.50;;;1.50;73.10;;;;;;5053928;28;20672;-86
2021/04/26 01:55:19;;;;;;;6.77;2.10;;;1.50;73.50;;;;;;5052720;28;20250;-86
2021/04/26 01:57:45;;;;;;;13.23;3.10;;;1.50;73.40;;;;;;5052584;28;20176;-86
2021/04/26 02:00:20;;;;;;;5.90;1.93;;;1.50;73.00;;;;;;5054032;28;20628;-87
2021/04/26 02:02:46;;;;;;;10.50;2.20;;;1.50;72.50;;;;;;5052519;28;20202;-86
2021/04/26 02:05:14;;;;;;;10.07;2.53;;;1.50;72.10;;;;;;5052542;28;20169;-86
2021/04/26 02:07:42;;;;;;;6.67;2.47;;;1.40;71.80;;;;;;5052596;28;20257;-86
2021/04/26 02:10:08;;;;;;;14.50;2.30;;;1.30;71.70;;;;;;5052213;28;20178;-87
2021/04/26 02:12:36;;;;;;;6.00;2.23;;;1.30;71.80;;;;;;5052170;28;20216;-86
2021/04/26 02:15:03;;;;;;;10.97;2.50;;;1.30;71.60;;;;;;5053821;28;20226;-86
2021/04/26 02:17:30;;;;;;;11.63;2.83;;;1.30;71.60;;;;;;5052280;28;20176;-87
2021/04/26 02:19:55;;;;;;;4.07;1.90;;;1.30;71.60;;;;;;5052516;28;20202;-86
2021/04/26 02:22:21;;;;;;;6.10;2.50;;;1.20;71.80;;;;;;5052237;28;20275;-85
2021/04/26 02:24:47;;;;;;;10.70;2.60;;;1.20;71.90;;;;;;5053462;28;20244;-86
2021/04/26 02:27:13;;;;;;;6.60;2.63;;;1.20;72.10;;;;;;5052075;28;20170;-86
2021/04/26 02:29:38;;;;;;;6.73;3.00;;;1.20;72.00;;;;;;5052199;28;20176;-86
2021/04/26 02:32:09;;;;;;;13.93;3.30;;;1.00;73.20;;;;;;5053537;28;20198;-86
2021/04/26 02:34:41;;;;;;;17.33;2.90;;;0.90;74.20;;;;;;5052089;28;20187;-86
2021/04/26 02:37:16;;;;;;;8.93;2.67;;;0.90;74.30;;;;;;5052077;28;20306;-87
2021/04/26 02:39:44;;;;;;;8.50;3.20;;;0.90;74.20;;;;;;5051883;28;20192;-86
2021/04/26 02:42:12;;;;;;;13.93;2.97;;;0.80;76.20;;;;;;5053091;28;20192;-87
2021/04/26 02:44:42;;;;;;;7.20;2.93;;;0.70;78.30;;;;;;5051886;28;20182;-86
2021/04/26 02:47:15;;;;;;;8.57;3.20;;;0.70;80.20;;;;;;5053258;28;20168;-86
2021/04/26 02:49:43;;;;;;;7.57;3.07;;;0.60;82.30;;;;;;5053132;28;20171;-86
2021/04/26 02:52:10;;;;;;;9.17;2.70;;;0.60;82.70;;;;;;5051705;28;20265;-86
2021/04/26 02:54:37;;;;;;;7.67;3.27;;;0.60;82.50;;;;;;5051877;28;20204;-86
2021/04/26 02:57:03;;;;;;;11.80;2.77;;;0.60;82.20;;;;;;5059167;28;20171;-86
2021/04/26 02:59:29;;;;;;;8.40;2.73;;;0.70;81.90;;;;;;5059493;28;20286;-86
2021/04/26 03:01:56;;;;;;;12.43;3.00;;;0.70;81.40;;;;;;5058299;28;20226;-86
2021/04/26 03:04:22;;;;;;;8.43;2.77;;;0.70;80.10;;;;;;5058303;28;20175;-87
2021/04/26 03:06:51;;;;;;;6.40;2.40;;;0.70;79.20;;;;;;5058409;28;20600;-86
2021/04/26 03:09:18;;;;;;;10.63;2.80;;;0.80;78.30;;;;;;5059604;28;20259;-86
2021/04/26 03:11:45;;;;;;;7.57;2.77;;;0.70;77.90;;;;;;5058208;28;20215;-87
2021/04/26 03:14:12;;;;;;;9.70;3.00;;;0.80;77.40;;;;;;5058357;28;20175;-87
2021/04/26 03:16:39;;;;;;;5.87;2.70;;;0.80;76.90;;;;;;5059684;28;20199;-86
2021/04/26 03:19:08;;;;;;;12.13;2.93;;;0.80;76.30;;;;;;5059458;28;20214;-86
2021/04/26 03:21:35;;;;;;;7.37;2.90;;;0.80;75.70;;;;;;5058200;28;20187;-86
2021/04/26 03:24:02;;;;;;;11.70;3.77;;;0.80;75.30;;;;;;5059506;28;20168;-85
2021/04/26 03:26:33;;;;;;;8.57;3.10;;;0.70;75.50;;;;;;5059535;28;20186;-86
2021/04/26 03:29:00;;;;;;;9.17;2.80;;;0.60;75.70;;;;;;5058377;28;20660;-85
2021/04/26 03:31:29;;;;;;;19.63;3.00;;;0.70;75.20;;;;;;5058057;28;20183;-86
2021/04/26 03:33:58;;;;;;;8.83;3.23;;;0.70;75.00;;;;;;5058110;28;20180;-86
2021/04/26 03:36:25;;;;;;;5.90;2.67;;;0.70;74.90;;;;;;5059479;28;20175;-86
2021/04/26 03:38:51;;;;;;;8.73;3.03;;;0.70;75.60;;;;;;5059278;28;20199;-85
2021/04/26 03:41:16;;;;;;;5.17;2.97;;;0.50;77.50;;;;;;5059439;28;20175;-86
2021/04/26 03:43:44;;;;;;;10.23;2.93;;;0.60;77.30;;;;;;5059265;28;20168;-86
2021/04/26 03:46:09;;;;;;;8.77;3.10;;;0.70;76.50;;;;;;5058122;28;20662;-86
2021/04/26 03:48:35;;;;;;;7.73;3.03;;;0.80;76.40;;;;;;5058027;28;20195;-86
2021/04/26 03:51:01;;;;;;;5.90;3.10;;;0.80;76.40;;;;;;5059130;28;20175;-86
2021/04/26 03:53:26;;;;;;;5.50;3.07;;;0.80;76.20;;;;;;5059220;28;20669;-86
2021/04/26 03:55:52;;;;;;;6.33;2.80;;;0.80;76.10;;;;;;5057987;28;20183;-86
2021/04/26 03:58:18;;;;;;;4.67;3.13;;;0.80;75.70;;;;;;5059316;28;20176;-85
2021/04/26 04:00:43;;;;;;;7.20;3.17;;;0.80;75.60;;;;;;5057831;28;20680;-85
2021/04/26 04:03:10;;;;;;;14.97;3.80;;;0.80;75.50;;;;;;5057828;28;20645;-86
2021/04/26 04:05:39;;;;;;;15.17;4.33;;;0.80;75.30;;;;;;5059311;28;20194;-86
2021/04/26 04:08:06;;;;;;;13.30;3.93;;;0.80;75.30;;;;;;5055481;28;20168;-85
2021/04/26 04:10:32;;;;;;;13.97;3.53;;;0.80;75.40;;;;;;5054615;28;20263;-86
2021/04/26 04:12:58;;;;;;;10.20;3.53;;;0.80;75.30;;;;;;5054430;28;20226;-86
2021/04/26 04:15:24;;;;;;;13.23;3.93;;;0.80;75.50;;;;;;5056110;28;20161;-86
2021/04/26 04:17:49;;;;;;;20.20;4.40;;;0.80;75.70;;;;;;5056003;28;20173;-86
2021/04/26 04:20:15;;;;;;;14.47;4.10;;;0.80;75.80;;;;;;5054455;28;20289;-86
2021/04/26 04:22:41;;;;;;;14.27;3.93;;;0.90;76.10;;;;;;5054343;28;20590;-85
2021/04/26 04:25:08;;;;;;;14.87;3.93;;;1.10;76.10;;;;;;5055737;28;20172;-85
2021/04/26 04:27:34;;;;;;;17.77;3.73;;;1.40;75.60;;;;;;5055525;28;20247;-85
2021/04/26 04:30:00;;;;;;;11.97;4.77;;;1.60;75.20;;;;;;5054555;28;20177;-86
2021/04/26 04:32:26;;;;;;;12.03;4.97;;;1.80;74.90;;;;;;5055546;28;20681;-86
2021/04/26 04:34:52;;;;;;;14.83;3.90;;;1.80;74.60;;;;;;5054217;28;20212;-86
2021/04/26 04:37:17;;;;;;;9.80;3.23;;;1.80;74.10;;;;;;5054203;28;20274;-86
2021/04/26 04:39:43;;;;;;;5.97;3.10;;;1.90;73.80;;;;;;5054255;28;20226;-86
2021/04/26 04:42:09;;;;;;;6.80;2.93;;;1.90;73.40;;;;;;5055270;28;20543;-86
2021/04/26 04:44:34;;;;;;;8.73;3.60;;;1.90;73.10;;;;;;5055182;28;20512;-85
2021/04/26 04:47:00;;;;;;;22.13;3.80;;;1.80;72.80;;;;;;5055249;28;20248;-86
2021/04/26 04:49:26;;;;;;;17.03;3.50;;;1.80;73.10;;;;;;5053921;28;20313;-86
2021/04/26 04:51:51;;;;;;;15.10;3.83;;;1.60;74.90;;;;;;5055265;28;20561;-86
2021/04/26 04:54:18;;;;;;;8.43;2.97;;;1.40;79.90;;;;;;5053994;28;20183;-86
2021/04/26 04:56:43;;;;;;;10.87;3.00;;;1.00;81.10;;;;;;5053974;28;20183;-86
2021/04/26 04:59:09;;;;;;;6.03;3.10;;;0.80;81.80;;;;;;5055059;28;20200;-86
2021/04/26 05:01:34;;;;;;;15.40;3.70;;;0.80;82.80;;;;;;5054891;28;20283;-87
2021/04/26 05:04:01;;;;;;;5.03;2.70;;;1.00;82.50;;;;;;5054976;28;20165;-86
2021/04/26 05:06:27;;;;;;;14.77;3.80;;;1.20;81.80;;;;;;5053624;28;20176;-87
2021/04/26 05:08:53;;;;;;;10.77;3.30;;;1.40;80.50;;;;;;5053643;28;20187;-86
2021/04/26 05:11:18;;;;;;;14.73;3.60;;;1.20;81.40;;;;;;5054703;28;20556;-85
2021/04/26 05:13:44;;;;;;;12.60;3.97;;;1.10;81.40;;;;;;5116980;22;20234;-86
2021/04/26 05:16:10;;;;;;;10.07;3.70;;;0.80;81.90;;;;;;5053201;28;20191;-86
2021/04/26 05:18:37;;;;;;;6.70;3.43;;;0.60;83.30;;;;;;5054091;28;20317;-86
2021/04/26 05:21:03;;;;;;;4.83;3.13;;;0.50;83.40;;;;;;5054464;28;20215;-86
2021/04/26 05:23:30;;;;;;;6.93;2.87;;;0.50;83.60;;;;;;5053334;28;20274;-86
2021/04/26 05:25:56;;;;;;;9.03;3.70;;;0.60;83.40;;;;;;5053021;28;20179;-86
2021/04/26 05:28:22;;;;;;;14.37;3.23;;;0.50;83.70;;;;;;5054325;28;20178;-86
2021/04/26 05:30:47;;;;;;;6.57;3.30;;;0.60;83.80;;;;;;5053006;28;20555;-86
2021/04/26 05:33:15;;;;;;;6.03;2.90;;;0.60;83.20;;;;;;5052852;28;20224;-86
2021/04/26 05:35:41;;;;;;;8.90;3.20;;;0.60;83.90;;;;;;5054168;28;20177;-86
2021/04/26 05:38:15;;;;;;;11.23;4.30;;;0.70;83.50;;;;;;5052809;28;20175;-86
2021/04/26 05:40:41;;;;;;;33.23;11.17;;;0.70;83.80;;;;;;5054356;28;20271;-86
2021/04/26 05:43:08;;;;;;;24.93;11.53;;;0.70;84.10;;;;;;5052749;28;20220;-86
2021/04/26 05:45:35;;;;;;;19.40;9.03;;;0.80;84.10;;;;;;5054257;28;20168;-86
2021/04/26 05:48:01;;;;;;;19.47;8.73;;;0.80;84.40;;;;;;5054160;28;20160;-86
2021/04/26 05:50:27;;;;;;;13.10;6.93;;;0.90;84.40;;;;;;5052737;28;20176;-86
2021/04/26 05:52:54;;;;;;;15.93;6.17;;;1.10;84.60;;;;;;5052608;28;20201;-86
2021/04/26 05:55:20;;;;;;;19.30;7.53;;;1.20;84.70;;;;;;5052622;28;20187;-87
2021/04/26 05:57:46;;;;;;;25.80;12.63;;;1.30;84.20;;;;;;5052560;28;20207;-86
2021/04/26 06:00:12;;;;;;;22.77;11.83;;;1.40;84.50;;;;;;5053721;28;20220;-86
2021/04/26 06:02:38;;;;;;;21.43;8.20;;;1.50;84.40;;;;;;5053528;28;20219;-87
2021/04/26 06:05:04;;;;;;;16.53;6.53;;;1.60;84.50;;;;;;5052666;28;20678;-87
2021/04/26 06:07:30;;;;;;;11.00;5.33;;;1.80;84.80;;;;;;5052299;28;20175;-87
2021/04/26 06:09:55;;;;;;;13.40;5.23;;;1.80;84.70;;;;;;5052347;28;20175;-87
2021/04/26 06:12:21;;;;;;;14.70;5.77;;;1.90;84.40;;;;;;5052077;28;20304;-86
2021/04/26 06:14:47;;;;;;;11.97;5.77;;;2.10;84.40;;;;;;5053502;28;20168;-87
2021/04/26 06:17:12;;;;;;;16.73;5.20;;;2.30;84.90;;;;;;5053448;28;20172;-87
2021/04/26 06:19:38;;;;;;;5.37;4.40;;;2.30;84.70;;;;;;5052039;28;20199;-87
2021/04/26 06:22:03;;;;;;;8.27;4.63;;;2.60;84.40;;;;;;5052032;28;20394;-86
2021/04/26 06:24:29;;;;;;;7.33;3.67;;;2.80;83.70;;;;;;5052102;28;20179;-87
2021/04/26 06:26:55;;;;;;;6.43;3.40;;;3.00;83.20;;;;;;5052056;28;20172;-87
2021/04/26 06:29:20;;;;;;;12.20;4.27;;;3.20;83.30;;;;;;5053279;28;20176;-88
2021/04/26 06:31:46;;;;;;;6.87;4.07;;;3.30;82.30;;;;;;5051237;28;20264;-85
2021/04/26 06:34:11;;;;;;;8.00;3.47;;;3.50;82.30;;;;;;5053240;28;20548;-86
2021/04/26 06:36:37;;;;;;;9.67;3.67;;;3.80;82.70;;;;;;5051943;28;20178;-86
2021/04/26 06:39:03;;;;;;;8.10;3.30;;;4.00;81.90;;;;;;5053420;28;20196;-86
2021/04/26 06:41:29;;;;;;;6.50;3.13;;;4.20;80.20;;;;;;5052212;28;20178;-87
2021/04/26 06:43:55;;;;;;;11.37;3.10;;;4.30;79.00;;;;;;5051816;28;20200;-87
2021/04/26 06:46:20;;;;;;;9.07;3.00;;;4.60;78.50;;;;;;5051891;28;20704;-87
2021/04/26 06:48:47;;;;;;;6.40;2.50;;;4.80;76.90;;;;;;5051855;28;20178;-87
2021/04/26 06:51:12;;;;;;;8.07;2.80;;;4.80;75.80;;;;;;5051810;28;20214;-86
2021/04/26 06:53:38;;;;;;;12.23;2.67;;;4.70;71.50;;;;;;5052932;28;20243;-86
2021/04/26 06:56:04;;;;;;;6.80;2.40;;;4.60;70.70;;;;;;5053007;28;20197;-87
2021/04/26 06:58:29;;;;;;;9.17;2.17;;;4.80;72.10;;;;;;5052964;28;20210;-87
2021/04/26 07:00:55;;;;;;;6.37;2.53;;;4.90;71.30;;;;;;5051617;28;20207;-87
2021/04/26 07:03:21;;;;;;;3.53;2.60;;;5.20;70.20;;;;;;5051586;28;20280;-87
2021/04/26 07:05:46;;;;;;;4.70;2.10;;;5.20;68.10;;;;;;5052973;28;20577;-86
2021/04/26 07:08:12;;;;;;;4.70;2.20;;;5.10;67.30;;;;;;5052840;28;20194;-87
2021/04/26 07:10:38;;;;;;;5.80;2.10;;;5.20;66.50;;;;;;5051678;28;20218;-86
2021/04/26 07:13:03;;;;;;;5.10;2.20;;;5.30;64.00;;;;;;5051379;28;20208;-87
2021/04/26 07:15:29;;;;;;;4.50;2.00;;;5.40;64.10;;;;;;5051531;28;20179;-87
2021/04/26 07:17:54;;;;;;;5.63;2.20;;;5.70;64.30;;;;;;5051524;28;20710;-87
2021/04/26 07:20:20;;;;;;;5.23;2.37;;;5.80;62.20;;;;;;5051761;28;20196;-87
2021/04/26 07:22:46;;;;;;;3.80;2.30;;;5.80;63.80;;;;;;5051411;28;20665;-87
2021/04/26 07:25:12;;;;;;;4.13;2.27;;;5.70;62.90;;;;;;5051596;28;20169;-87
2021/04/26 07:27:38;;;;;;;2.47;1.80;;;5.80;63.60;;;;;;5051467;28;20178;-87
2021/04/26 07:30:05;;;;;;;9.17;1.87;;;5.90;62.90;;;;;;5051993;28;20579;-88
2021/04/26 07:32:31;;;;;;;4.00;2.20;;;6.30;61.90;;;;;;5052539;28;20669;-87
2021/04/26 07:34:56;;;;;;;4.93;2.10;;;6.30;59.50;;;;;;5051335;28;20176;-86
2021/04/26 07:37:22;;;;;;;5.40;2.00;;;6.20;59.80;;;;;;5052614;28;20547;-87
2021/04/26 07:39:48;;;;;;;5.37;2.17;;;6.30;59.90;;;;;;5051340;28;20287;-87
2021/04/26 07:42:13;;;;;;;7.63;2.20;;;6.40;59.30;;;;;;5053052;28;20192;-86
2021/04/26 07:44:39;;;;;;;7.03;2.30;;;6.50;59.10;;;;;;5055083;28;20641;-87
2021/04/26 07:47:05;;;;;;;3.23;1.80;;;6.60;58.20;;;;;;5056461;28;20169;-86
2021/04/26 07:49:31;;;;;;;3.47;1.80;;;6.60;58.60;;;;;;5056284;28;20215;-86
2021/04/26 07:51:57;;;;;;;10.30;2.33;;;6.60;56.70;;;;;;5054973;28;20176;-86
2021/04/26 07:54:23;;;;;;;5.70;2.00;;;6.60;57.20;;;;;;5054882;28;20179;-86
2021/04/26 07:56:48;;;;;;;7.90;2.20;;;6.80;56.50;;;;;;5056176;28;20174;-86
2021/04/26 07:59:14;;;;;;;6.60;2.50;;;6.80;55.70;;;;;;5055963;28;20220;-87
2021/04/26 08:01:40;;;;;;;3.90;2.17;;;6.80;55.80;;;;;;5055954;28;20217;-86
2021/04/26 08:04:06;;;;;;;3.77;1.97;;;6.90;56.40;;;;;;5054741;28;20230;-86
2021/04/26 08:06:32;;;;;;;5.97;2.27;;;7.10;57.10;;;;;;5055942;28;20170;-86
2021/04/26 08:08:57;;;;;;;3.63;2.10;;;7.20;56.00;;;;;;5054661;28;20185;-87
2021/04/26 08:11:23;;;;;;;3.80;1.93;;;7.20;53.90;;;;;;5055903;28;20253;-86
2021/04/26 08:13:49;;;;;;;9.93;2.50;;;7.30;54.00;;;;;;5055868;28;20206;-86
2021/04/26 08:16:14;;;;;;;4.97;2.13;;;7.50;52.80;;;;;;5054557;28;20703;-86
2021/04/26 08:18:40;;;;;;;4.15;1.90;;;7.60;53.50;;;;;;5055823;28;20178;-86
2021/04/26 08:21:06;;;;;;;6.63;2.27;;;7.70;55.40;;;;;;5054474;28;20176;-86
2021/04/26 08:23:31;;;;;;;8.00;2.50;;;7.70;55.00;;;;;;5055846;28;20219;-87
2021/04/26 08:25:57;;;;;;;7.23;2.37;;;7.80;54.30;;;;;;5055594;28;20636;-87
2021/04/26 08:28:25;;;;;;;5.20;2.60;;;7.90;54.80;;;;;;5054520;28;20191;-86
2021/04/26 08:30:51;;;;;;;4.20;2.00;;;7.80;52.40;;;;;;5054217;28;20190;-87
2021/04/26 08:33:17;;;;;;;4.43;2.10;;;7.90;52.60;;;;;;5054224;28;20198;-86
2021/04/26 08:35:42;;;;;;;4.73;2.40;;;7.90;52.10;;;;;;5055393;28;20574;-86
2021/04/26 08:38:09;;;;;;;3.10;1.60;;;8.00;53.70;;;;;;5055405;28;20182;-86
2021/04/26 08:40:34;;;;;;;3.03;1.43;;;8.30;52.70;;;;;;5055218;28;20200;-86
2021/04/26 08:43:05;;;;;;;2.90;2.13;;;8.40;50.90;;;;;;5053965;28;20207;-86
2021/04/26 08:45:31;;;;;;;3.17;2.03;;;8.50;50.70;;;;;;5055090;28;20648;-86
2021/04/26 08:47:57;;;;;;;4.20;1.83;;;8.60;50.50;;;;;;5053910;28;20233;-87
2021/04/26 08:50:24;;;;;;;2.10;1.60;;;8.80;51.10;;;;;;5055177;28;20237;-87
2021/04/26 08:52:50;;;;;;;4.40;1.80;;;9.00;51.50;;;;;;5054646;28;20691;-87
2021/04/26 08:55:18;;;;;;;4.33;1.93;;;9.30;48.70;;;;;;5053523;28;20187;-87
2021/04/26 08:57:44;;;;;;;4.57;2.23;;;9.10;48.00;;;;;;5054958;28;20172;-87
2021/04/26 09:00:11;;;;;;;3.17;1.57;;;9.40;49.20;;;;;;5054848;28;20254;-87
2021/04/26 09:02:52;;;;;;;6.50;1.77;;;9.60;47.50;;;;;;5055105;28;20238;-87
2021/04/26 09:05:23;;;;;;;4.37;1.77;;;9.90;45.50;;;;;;5054869;28;20157;-87
2021/04/26 09:07:50;;;;;;;9.47;1.83;;;10.10;47.20;;;;;;5053516;28;20177;-87
2021/04/26 09:10:16;;;;;;;4.60;1.67;;;10.20;43.60;;;;;;5054980;28;20172;-87
2021/04/26 09:12:42;;;;;;;2.97;1.50;;;10.20;41.70;;;;;;5054557;28;20218;-87
2021/04/26 09:15:08;;;;;;;7.93;1.50;;;10.40;41.10;;;;;;5053449;28;20761;-88
2021/04/26 09:17:35;;;;;;;3.13;1.50;;;10.60;42.30;;;;;;5054931;28;20172;-87
2021/04/26 09:20:21;;;;;;;3.70;1.70;;;10.70;40.10;;;;;;5054517;28;20571;-88
2021/04/26 09:22:55;;;;;;;7.53;2.00;;;10.60;40.00;;;;;;5054767;28;20219;-86
2021/04/26 09:25:33;;;;;;;4.30;1.70;;;10.80;38.20;;;;;;5054710;28;20217;-87
2021/04/26 09:28:19;;;;;;;3.83;1.77;;;11.00;39.40;;;;;;5053137;28;20559;-88
2021/04/26 09:30:51;;;;;;;4.50;1.60;;;11.20;39.20;;;;;;5053198;28;20168;-86
2021/04/26 09:33:40;;;;;;;3.20;1.50;;;11.30;40.00;;;;;;5052949;28;20204;-87
2021/04/26 09:36:20;;;;;;;4.50;1.60;;;11.10;38.60;;;;;;5053008;28;20229;-86
2021/04/26 09:38:51;;;;;;;3.17;1.53;;;11.20;37.60;;;;;;5054103;28;20215;-86
2021/04/26 09:41:30;;;;;;;3.37;1.60;;;11.30;36.60;;;;;;5052862;28;20182;-86
2021/04/26 09:43:59;;;;;;;4.43;1.83;;;11.00;34.10;;;;;;5052889;28;20207;-86
2021/04/26 09:46:37;;;;;;;2.13;1.60;;;11.00;38.20;;;;;;5052755;28;20219;-86
2021/04/26 09:49:19;;;;;;;3.07;1.53;;;11.10;38.80;;;;;;5053053;28;20262;-87
2021/04/26 09:52:12;;;;;;;3.13;1.50;;;11.20;37.10;;;;;;5053731;28;20348;-86
2021/04/26 09:54:43;;;;;;;2.33;1.50;;;11.30;37.40;;;;;;5050764;28;20557;-87
2021/04/26 09:57:09;;;;;;;5.20;1.70;;;11.70;36.70;;;;;;5052666;28;20654;-86
2021/04/26 09:59:35;;;;;;;2.97;1.50;;;11.70;35.20;;;;;;5053706;28;20228;-87
2021/04/26 10:02:02;;;;;;;3.43;1.50;;;11.60;34.40;;;;;;5053804;28;20226;-88
2021/04/26 10:04:28;;;;;;;4.77;2.10;;;11.70;35.30;;;;;;5052131;28;20638;-87
2021/04/26 10:06:53;;;;;;;5.47;2.10;;;11.40;33.50;;;;;;5053026;28;20203;-87
2021/04/26 10:09:20;;;;;;;2.93;1.50;;;11.20;36.60;;;;;;5052375;28;20184;-87
2021/04/26 10:11:46;;;;;;;2.07;1.33;;;11.60;33.70;;;;;;5053441;28;20661;-87
2021/04/26 10:14:14;;;;;;;1.50;1.27;;;11.70;35.80;;;;;;5054126;28;20268;-88
2021/04/26 10:16:53;;;;;;;1.37;1.27;;;11.80;33.20;;;;;;5053487;28;20204;-88
2021/04/26 10:19:31;;;;;;;2.00;1.23;;;11.50;34.80;;;;;;5053427;28;20389;-87
2021/04/26 10:21:59;;;;;;;2.47;1.60;;;11.30;34.10;;;;;;5051979;28;20178;-87
2021/04/26 10:24:26;;;;;;;2.43;1.70;;;11.50;34.30;;;;;;5053811;28;20575;-86
2021/04/26 10:26:55;;;;;;;3.40;1.70;;;11.70;33.90;;;;;;5053542;28;20168;-87
2021/04/26 10:29:26;;;;;;;1.93;1.40;;;11.50;35.10;;;;;;5053989;28;20176;-88
2021/04/26 10:32:01;;;;;;;3.43;1.63;;;11.50;34.00;;;;;;5052097;28;20179;-86
2021/04/26 10:34:41;;;;;;;5.00;1.80;;;11.40;35.20;;;;;;5052025;28;20184;-87
2021/04/26 10:37:16;;;;;;;6.17;1.40;;;11.80;35.60;;;;;;5053521;28;20176;-88
2021/04/26 10:40:00;;;;;;;2.77;1.60;;;11.60;35.30;;;;;;5051803;28;20191;-87
2021/04/26 10:42:43;;;;;;;5.27;1.90;;;11.90;39.10;;;;;;5051797;28;20203;-86
2021/04/26 10:45:11;;;;;;;4.50;1.63;;;12.30;36.40;;;;;;5051890;28;20186;-87
2021/04/26 10:47:38;;;;;;;3.57;1.83;;;12.00;38.30;;;;;;5053040;28;20176;-86
2021/04/26 10:50:03;;;;;;;3.40;1.60;;;12.10;37.40;;;;;;5051820;28;20179;-87
2021/04/26 10:52:29;;;;;;;3.83;1.73;;;12.70;36.70;;;;;;5051694;28;20731;-87
2021/04/26 10:55:12;;;;;;;3.30;1.43;;;12.70;33.80;;;;;;5053046;28;20176;-87
2021/04/26 10:57:41;;;;;;;2.13;1.60;;;12.70;37.50;;;;;;5052970;28;20165;-86
2021/04/26 11:00:31;;;;;;;2.57;1.70;;;12.30;34.80;;;;;;5052875;28;20198;-87
2021/04/26 11:02:57;;;;;;;2.73;1.60;;;11.80;35.40;;;;;;5053049;28;20251;-86
2021/04/26 11:05:24;;;;;;;3.43;1.97;;;11.70;37.10;;;;;;5051662;28;20176;-86
2021/04/26 11:07:54;;;;;;;3.83;1.63;;;11.40;35.70;;;;;;5051650;28;20656;-86
2021/04/26 11:10:29;;;;;;;19.93;3.17;;;11.60;36.10;;;;;;5053177;28;20574;-86
2021/04/26 11:12:56;;;;;;;3.80;1.60;;;11.60;35.70;;;;;;5076972;22;20227;-88
2021/04/26 11:15:23;;;;;;;3.27;1.87;;;11.70;35.30;;;;;;5051578;28;20171;-87
2021/04/26 11:17:50;;;;;;;4.20;2.67;;;12.00;35.30;;;;;;5054805;28;20183;-87
2021/04/26 11:20:20;;;;;;;3.03;1.90;;;12.40;37.70;;;;;;5056764;28;20253;-87
2021/04/26 11:22:46;;;;;;;5.50;2.00;;;12.90;34.10;;;;;;5055762;28;20191;-85
2021/04/26 11:25:39;;;;;;;3.43;1.77;;;12.90;34.70;;;;;;5057045;28;20168;-86
2021/04/26 11:28:08;;;;;;;3.63;1.90;;;13.00;34.30;;;;;;5057287;28;20168;-86
2021/04/26 11:30:36;;;;;;;3.37;1.90;;;12.70;35.80;;;;;;5056215;28;20207;-86
2021/04/26 11:33:20;;;;;;;6.43;2.10;;;13.10;35.90;;;;;;5056948;28;20200;-86
2021/04/26 11:36:12;;;;;;;2.80;1.87;;;13.60;33.20;;;;;;5056173;28;20215;-86
2021/04/26 11:38:40;;;;;;;3.43;1.97;;;13.50;34.80;;;;;;5057711;28;20180;-86
2021/04/26 11:41:06;;;;;;;4.43;2.07;;;12.60;34.40;;;;;;5057838;28;20219;-86
2021/04/26 11:43:32;;;;;;;4.10;1.87;;;12.50;33.20;;;;;;5057011;28;20195;-87
2021/04/26 11:45:58;;;;;;;3.23;1.80;;;13.00;34.30;;;;;;5054946;28;20176;-87
2021/04/26 11:48:26;;;;;;;2.10;1.63;;;13.20;32.80;;;;;;5056357;28;20164;-86
2021/04/26 11:50:53;;;;;;;2.73;1.73;;;13.20;33.20;;;;;;5056685;28;20666;-86
2021/04/26 11:53:30;;;;;;;2.40;1.97;;;13.20;34.50;;;;;;5055324;28;20337;-85
2021/04/26 11:56:10;;;;;;;3.47;1.90;;;12.90;30.90;;;;;;5056798;28;20156;-86
2021/04/26 11:58:37;;;;;;;2.40;1.43;;;12.80;33.80;;;;;;5057184;28;20642;-86
2021/04/26 12:01:11;;;;;;;5.87;1.70;;;13.30;34.80;;;;;;5057065;28;20227;-86
2021/04/26 12:03:55;;;;;;;2.47;1.47;;;13.30;33.80;;;;;;5055736;28;20196;-86
2021/04/26 12:06:22;;;;;;;4.60;1.87;;;13.60;31.50;;;;;;5055141;28;20172;-86
2021/04/26 12:08:48;;;;;;;4.03;1.57;;;13.40;31.60;;;;;;5054980;28;20176;-87
2021/04/26 12:11:19;;;;;;;1.47;1.20;;;13.50;33.70;;;;;;5056211;28;20171;-87
2021/04/26 12:14:03;;;;;;;8.63;1.70;;;13.70;32.90;;;;;;5054584;28;20625;-87
2021/04/26 12:16:29;;;;;;;2.53;1.60;;;13.50;31.90;;;;;;5054700;28;20167;-87
2021/04/26 12:19:02;;;;;;;2.33;1.10;;;13.70;31.70;;;;;;5055763;28;20169;-87
2021/04/26 12:21:28;;;;;;;4.33;1.50;;;13.70;32.20;;;;;;5054611;28;20195;-87
2021/04/26 12:23:54;;;;;;;3.63;1.80;;;13.50;31.60;;;;;;5054592;28;20192;-87
2021/04/26 12:26:20;;;;;;;2.57;1.17;;;13.60;29.60;;;;;;5054509;28;20173;-87
2021/04/26 12:28:48;;;;;;;2.20;1.40;;;13.40;30.30;;;;;;5054561;28;20247;-87
2021/04/26 12:31:25;;;;;;;2.03;1.33;;;13.00;29.10;;;;;;5054401;28;20230;-87
2021/04/26 12:33:51;;;;;;;4.63;1.40;;;12.90;30.40;;;;;;5055011;28;20200;-87
2021/04/26 12:36:18;;;;;;;3.77;1.70;;;12.60;32.30;;;;;;5054639;28;20176;-87
2021/04/26 12:38:49;;;;;;;3.10;1.40;;;12.30;31.20;;;;;;5055827;28;20175;-86
2021/04/26 12:41:18;;;;;;;3.50;1.50;;;12.30;32.70;;;;;;5055882;28;20225;-85
2021/04/26 12:43:45;;;;;;;1.40;1.30;;;12.80;31.90;;;;;;5056469;28;20283;-85
2021/04/26 12:46:13;;;;;;;1.93;1.50;;;13.00;31.40;;;;;;5054816;28;20172;-85
2021/04/26 12:48:41;;;;;;;3.83;1.60;;;13.30;31.50;;;;;;5056120;28;20172;-86
2021/04/26 12:51:07;;;;;;;2.27;1.47;;;13.00;27.90;;;;;;5055643;28;20225;-85
2021/04/26 12:53:38;;;;;;;14.90;1.70;;;13.20;31.50;;;;;;5055718;28;20187;-85
2021/04/26 12:56:03;;;;;;;3.13;1.50;;;13.60;31.50;;;;;;5054229;28;20257;-85
2021/04/26 12:58:38;;;;;;;3.63;2.07;;;13.30;28.70;;;;;;5055476;28;20645;-85